createdAt,value
2018-09-01T00:01:33.112Z,91.50
2018-09-01T00:03:36.640Z,91.10
2018-09-01T00:05:40.325Z,91.20
2018-09-01T00:07:43.901Z,92.50
2018-09-01T00:09:47.420Z,93.10
2018-09-01T00:11:51.040Z,93.70
2018-09-01T00:13:54.628Z,94.00
2018-09-01T00:15:58.150Z,93.50
2018-09-01T00:18:01.971Z,92.70
2018-09-01T00:20:05.650Z,92.40
2018-09-01T00:22:09.254Z,92.40
2018-09-01T00:24:12.793Z,92.80
2018-09-01T00:26:16.310Z,93.80
2018-09-01T00:28:19.948Z,93.30
2018-09-01T00:30:23.480Z,92.40
2018-09-01T00:32:27.005Z,91.80
2018-09-01T00:34:30.656Z,92.00
2018-09-01T00:36:34.212Z,93.20
2018-09-01T00:38:43.086Z,92.70
2018-09-01T00:40:46.615Z,92.70
2018-09-01T00:42:50.195Z,91.90
2018-09-01T00:44:53.723Z,92.20
2018-09-01T00:46:57.260Z,92.30
2018-09-01T00:49:00.992Z,92.50
2018-09-01T00:51:04.534Z,92.50
2018-09-01T00:53:08.336Z,92.50
2018-09-01T00:55:45.593Z,93.10
2018-09-01T00:57:49.197Z,93.00
2018-09-01T00:59:52.849Z,93.50
2018-09-01T01:01:56.358Z,94.50
2018-09-01T01:03:59.898Z,94.80
2018-09-01T01:06:03.417Z,94.90
2018-09-01T01:08:07.146Z,94.40
2018-09-01T01:10:10.683Z,94.20
2018-09-01T01:12:14.421Z,94.60
2018-09-01T01:14:17.998Z,93.80
2018-09-01T01:16:21.676Z,94.80
2018-09-01T01:18:25.364Z,94.40
2018-09-01T01:20:28.919Z,95.50
2018-09-01T01:22:32.513Z,95.20
2018-09-01T01:24:36.277Z,95.10
2018-09-01T01:26:39.806Z,94.80
2018-09-01T01:28:43.370Z,95.70
2018-09-01T01:30:47.076Z,95.90
2018-09-01T01:32:50.604Z,96.10
2018-09-01T01:34:54.307Z,95.10
2018-09-01T01:36:57.798Z,94.70
2018-09-01T01:39:01.376Z,94.20
2018-09-01T01:41:04.903Z,93.90
2018-09-01T01:43:08.448Z,93.70
2018-09-01T01:45:12.057Z,93.70
2018-09-01T01:47:15.730Z,93.60
2018-09-01T01:49:19.331Z,94.70
2018-09-01T01:51:22.865Z,94.40
2018-09-01T01:53:26.780Z,94.70
2018-09-01T01:55:30.328Z,95.00
2018-09-01T01:57:38.103Z,94.10
2018-09-01T01:59:41.733Z,93.40
2018-09-01T02:01:45.408Z,93.60
2018-09-01T02:03:48.944Z,93.30
2018-09-01T02:05:52.491Z,93.50
2018-09-01T02:07:56.175Z,93.60
2018-09-01T02:09:59.762Z,93.40
2018-09-01T02:12:03.383Z,93.30
2018-09-01T02:14:07.008Z,93.80
2018-09-01T02:16:10.556Z,93.70
2018-09-01T02:18:14.095Z,94.30
2018-09-01T02:20:17.709Z,93.50
2018-09-01T02:22:21.298Z,93.40
2018-09-01T02:24:24.811Z,93.30
2018-09-01T02:26:28.439Z,92.90
2018-09-01T02:28:32.033Z,92.90
2018-09-01T02:30:35.621Z,92.60
2018-09-01T02:32:39.308Z,92.70
2018-09-01T02:34:42.848Z,92.00
2018-09-01T02:36:46.490Z,91.70
2018-09-01T02:38:50.062Z,92.00
2018-09-01T02:40:53.624Z,92.00
2018-09-01T02:42:57.222Z,92.30
2018-09-01T02:45:00.901Z,92.30
2018-09-01T02:47:04.565Z,92.30
2018-09-01T02:49:08.148Z,92.30
2018-09-01T02:51:11.711Z,93.10
2018-09-01T02:53:15.389Z,93.50
2018-09-01T02:55:19.015Z,93.90
2018-09-01T02:57:22.552Z,94.40
2018-09-01T02:59:26.144Z,95.70
2018-09-01T03:01:35.673Z,95.40
2018-09-01T03:03:39.296Z,94.70
2018-09-01T03:05:42.805Z,94.90
2018-09-01T03:07:46.383Z,94.80
2018-09-01T03:09:49.951Z,94.50
2018-09-01T03:11:54.406Z,94.00
2018-09-01T03:13:58.082Z,93.20
2018-09-01T03:16:01.640Z,93.00
2018-09-01T03:18:05.306Z,93.30
2018-09-01T03:20:09.081Z,93.40
2018-09-01T03:22:12.661Z,93.80
2018-09-01T03:24:16.287Z,93.80
2018-09-01T03:26:19.877Z,94.50
2018-09-01T03:28:23.367Z,94.30
2018-09-01T03:30:26.868Z,93.60
2018-09-01T03:32:30.420Z,93.30
2018-09-01T03:34:34.098Z,92.70
2018-09-01T03:36:37.631Z,93.10
2018-09-01T03:38:41.270Z,93.00
2018-09-01T03:40:44.840Z,92.90
2018-09-01T03:42:48.384Z,92.80
2018-09-01T03:44:51.876Z,93.00
2018-09-01T03:46:55.560Z,92.60
2018-09-01T03:49:00.527Z,93.20
2018-09-01T03:51:04.095Z,92.90
2018-09-01T03:53:07.701Z,92.70
2018-09-01T03:55:11.207Z,92.50
2018-09-01T03:57:14.733Z,91.90
2018-09-01T03:59:18.367Z,91.70
2018-09-01T04:01:22.000Z,91.60
2018-09-01T04:03:25.512Z,91.50
2018-09-01T04:05:29.184Z,91.00
2018-09-01T04:07:32.715Z,91.10
2018-09-01T04:09:36.381Z,90.70
2018-09-01T04:11:40.074Z,90.80
2018-09-01T04:13:43.635Z,90.80
2018-09-01T04:15:47.333Z,91.30
2018-09-01T04:17:50.861Z,91.80
2018-09-01T04:19:54.416Z,92.40
2018-09-01T04:21:57.989Z,91.80
2018-09-01T04:24:01.552Z,91.40
2018-09-01T04:26:05.175Z,91.60
2018-09-01T04:28:15.385Z,92.10
2018-09-01T04:30:19.161Z,92.00
2018-09-01T04:32:22.731Z,92.10
2018-09-01T04:34:26.309Z,92.20
2018-09-01T04:36:29.850Z,92.80
2018-09-01T04:38:33.359Z,93.00
2018-09-01T04:40:36.903Z,93.70
2018-09-01T04:42:40.476Z,93.20
2018-09-01T04:44:44.154Z,93.40
2018-09-01T04:46:47.745Z,94.30
2018-09-01T04:48:51.304Z,93.60
2018-09-01T04:50:54.851Z,93.30
2018-09-01T04:52:58.393Z,92.90
2018-09-01T04:55:01.928Z,92.40
2018-09-01T04:57:05.500Z,92.90
2018-09-01T04:59:09.110Z,93.70
2018-09-01T05:01:12.845Z,94.10
2018-09-01T05:03:16.183Z,93.80
2018-09-01T05:05:19.768Z,92.50
2018-09-01T05:07:29.879Z,92.70
2018-09-01T05:09:33.415Z,92.70
2018-09-01T05:11:36.977Z,92.70
2018-09-01T05:13:40.639Z,92.50
2018-09-01T05:15:44.219Z,92.30
2018-09-01T05:17:47.943Z,92.60
2018-09-01T05:19:51.416Z,92.70
2018-09-01T05:21:54.936Z,92.30
2018-09-01T05:23:58.477Z,92.00
2018-09-01T05:26:01.960Z,91.60
2018-09-01T05:28:05.796Z,91.80
2018-09-01T05:30:09.820Z,91.80
2018-09-01T05:32:13.386Z,91.90
2018-09-01T05:34:16.881Z,91.60
2018-09-01T05:36:20.365Z,91.40
2018-09-01T05:38:23.927Z,91.70
2018-09-01T05:40:27.442Z,92.00
2018-09-01T05:42:31.016Z,91.90
2018-09-01T05:44:34.527Z,92.20
2018-09-01T05:46:38.051Z,91.70
2018-09-01T05:48:41.747Z,91.40
2018-09-01T05:50:45.313Z,91.90
2018-09-01T05:52:48.848Z,92.10
2018-09-01T05:54:52.355Z,91.60
2018-09-01T05:56:55.980Z,91.40
2018-09-01T05:58:59.480Z,90.90
2018-09-01T06:01:03.086Z,91.40
2018-09-01T06:03:06.604Z,91.50
2018-09-01T06:05:10.105Z,92.00
2018-09-01T06:07:13.659Z,92.20
2018-09-01T06:09:17.168Z,93.30
2018-09-01T06:11:20.707Z,93.30
2018-09-01T06:13:24.277Z,92.90
2018-09-01T06:15:27.767Z,92.80
2018-09-01T06:17:31.321Z,92.00
2018-09-01T06:19:35.017Z,91.20
2018-09-01T06:21:38.479Z,91.60
2018-09-01T06:23:42.061Z,91.40
2018-09-01T06:25:45.769Z,91.20
2018-09-01T06:27:51.338Z,91.30
2018-09-01T06:29:54.872Z,91.20
2018-09-01T06:32:02.013Z,91.60
2018-09-01T06:34:05.603Z,91.60
2018-09-01T06:36:09.239Z,92.20
2018-09-01T06:38:12.891Z,92.30
2018-09-01T06:40:16.544Z,93.10
2018-09-01T06:42:20.200Z,92.00
2018-09-01T06:44:23.683Z,91.60
2018-09-01T06:46:27.192Z,91.90
2018-09-01T06:48:30.753Z,92.30
2018-09-01T06:50:34.362Z,92.30
2018-09-01T06:52:37.903Z,91.80
2018-09-01T06:54:41.392Z,91.50
2018-09-01T06:56:45.117Z,91.40
2018-09-01T06:58:49.288Z,91.00
2018-09-01T07:00:52.982Z,91.00
2018-09-01T07:02:57.275Z,92.00
2018-09-01T07:05:00.812Z,91.80
2018-09-01T07:07:04.580Z,91.10
2018-09-01T07:09:08.471Z,90.10
2018-09-01T07:11:12.172Z,89.60
2018-09-01T07:13:15.882Z,88.30
2018-09-01T07:15:19.442Z,87.40
2018-09-01T07:17:23.077Z,87.10
2018-09-01T07:19:26.654Z,86.90
2018-09-01T07:21:30.195Z,86.10
2018-09-01T07:23:33.702Z,86.80
2018-09-01T07:25:37.383Z,86.00
2018-09-01T07:27:41.135Z,84.90
2018-09-01T07:29:44.803Z,84.20
2018-09-01T07:31:48.467Z,85.00
2018-09-01T07:33:51.974Z,84.20
2018-09-01T07:35:55.517Z,83.70
2018-09-01T07:37:59.089Z,83.50
2018-09-01T07:40:02.649Z,84.20
2018-09-01T07:42:06.410Z,84.10
2018-09-01T07:44:10.120Z,83.20
2018-09-01T07:46:13.630Z,82.00
2018-09-01T07:48:17.145Z,82.30
2018-09-01T07:50:20.784Z,82.00
2018-09-01T07:52:24.439Z,83.00
2018-09-01T07:54:28.097Z,83.30
2018-09-01T07:56:31.607Z,83.00
2018-09-01T07:58:35.207Z,83.80
2018-09-01T08:00:38.736Z,84.40
2018-09-01T08:02:42.228Z,84.30
2018-09-01T08:04:45.911Z,82.40
2018-09-01T08:06:49.437Z,82.50
2018-09-01T08:08:53.036Z,83.40
2018-09-01T08:10:56.631Z,83.50
2018-09-01T08:13:00.288Z,83.10
2018-09-01T08:15:03.881Z,81.60
2018-09-01T08:17:07.466Z,81.80
2018-09-01T08:19:11.060Z,83.50
2018-09-01T08:21:14.530Z,83.00
2018-09-01T08:23:18.145Z,81.60
2018-09-01T08:25:21.795Z,80.00
2018-09-01T08:27:25.399Z,80.00
2018-09-01T08:29:28.975Z,80.50
2018-09-01T08:31:32.473Z,80.40
2018-09-01T08:33:36.151Z,80.10
2018-09-01T08:35:39.685Z,80.40
2018-09-01T08:37:43.180Z,80.70
2018-09-01T08:39:46.976Z,79.10
2018-09-01T08:41:50.466Z,79.70
2018-09-01T08:43:54.129Z,80.00
2018-09-01T08:45:57.737Z,82.30
2018-09-01T08:48:01.216Z,81.30
2018-09-01T08:50:04.998Z,81.50
2018-09-01T08:52:08.489Z,80.70
2018-09-01T08:54:12.101Z,82.20
2018-09-01T08:56:15.558Z,81.20
2018-09-01T08:58:19.179Z,81.10
2018-09-01T09:00:22.705Z,79.80
2018-09-01T09:02:26.211Z,80.00
2018-09-01T09:04:29.724Z,78.70
2018-09-01T09:06:33.269Z,78.50
2018-09-01T09:08:36.799Z,79.00
2018-09-01T09:10:40.456Z,78.30
2018-09-01T09:12:44.100Z,79.70
2018-09-01T09:14:47.804Z,78.70
2018-09-01T09:16:51.355Z,78.60
2018-09-01T09:18:54.861Z,78.50
2018-09-01T09:20:58.694Z,78.40
2018-09-01T09:23:02.259Z,77.80
2018-09-01T09:25:05.902Z,77.20
2018-09-01T09:27:09.450Z,77.50
2018-09-01T09:29:13.203Z,76.30
2018-09-01T09:31:16.856Z,74.50
2018-09-01T09:33:20.369Z,76.00
2018-09-01T09:35:23.953Z,76.10
2018-09-01T09:37:27.463Z,76.40
2018-09-01T09:39:31.045Z,75.10
2018-09-01T09:41:34.536Z,75.60
2018-09-01T09:43:38.156Z,76.30
2018-09-01T09:45:41.903Z,77.30
2018-09-01T09:47:45.409Z,77.10
2018-09-01T09:49:49.013Z,77.90
2018-09-01T09:51:52.526Z,76.80
2018-09-01T09:53:56.095Z,77.80
2018-09-01T09:55:59.706Z,77.80
2018-09-01T09:58:03.588Z,78.10
2018-09-01T10:00:08.153Z,76.60
2018-09-01T10:02:11.707Z,75.80
2018-09-01T10:04:15.235Z,76.40
2018-09-01T10:06:18.746Z,75.30
2018-09-01T10:08:22.270Z,75.30
2018-09-01T10:10:25.803Z,74.20
2018-09-01T10:12:29.375Z,73.50
2018-09-01T10:14:32.928Z,73.90
2018-09-01T10:16:36.592Z,73.10
2018-09-01T10:18:40.294Z,71.90
2018-09-01T10:20:43.907Z,70.40
2018-09-01T10:22:47.476Z,71.60
2018-09-01T10:24:51.016Z,72.50
2018-09-01T10:26:54.610Z,73.40
2018-09-01T10:28:58.107Z,72.30
2018-09-01T10:31:01.613Z,72.20
2018-09-01T10:33:05.418Z,73.10
2018-09-01T10:35:09.113Z,72.50
2018-09-01T10:37:12.624Z,71.80
2018-09-01T10:39:16.172Z,71.30
2018-09-01T10:41:19.895Z,67.90
2018-09-01T10:43:23.777Z,67.60
2018-09-01T10:45:27.377Z,68.10
2018-09-01T10:47:30.919Z,68.40
2018-09-01T10:49:34.440Z,67.70
2018-09-01T10:51:37.959Z,67.80
2018-09-01T10:53:41.480Z,68.30
2018-09-01T10:55:45.061Z,67.50
2018-09-01T10:57:48.683Z,66.70
2018-09-01T10:59:52.297Z,67.60
2018-09-01T11:01:55.739Z,67.60
2018-09-01T11:03:59.303Z,68.40
2018-09-01T11:06:02.809Z,66.90
2018-09-01T11:08:06.513Z,66.60
2018-09-01T11:10:10.015Z,65.40
2018-09-01T11:12:13.808Z,65.30
2018-09-01T11:14:17.694Z,64.90
2018-09-01T11:16:21.347Z,64.80
2018-09-01T11:18:24.910Z,65.50
2018-09-01T11:20:28.491Z,65.20
2018-09-01T11:22:32.187Z,64.80
2018-09-01T11:24:35.738Z,64.40
2018-09-01T11:26:39.259Z,63.40
2018-09-01T11:28:42.755Z,63.10
2018-09-01T11:30:46.435Z,63.20
2018-09-01T11:32:50.150Z,63.70
2018-09-01T11:34:53.691Z,63.50
2018-09-01T11:36:57.302Z,62.40
2018-09-01T11:39:00.936Z,63.80
2018-09-01T11:41:04.497Z,64.50
2018-09-01T11:43:08.243Z,63.80
2018-09-01T11:45:11.611Z,63.30
2018-09-01T11:47:15.172Z,63.20
2018-09-01T11:49:18.683Z,62.50
2018-09-01T11:51:22.202Z,60.60
2018-09-01T11:53:25.857Z,60.40
2018-09-01T11:55:29.453Z,61.10
2018-09-01T11:57:32.985Z,61.50
2018-09-01T11:59:36.523Z,60.20
2018-09-01T12:01:40.225Z,60.50
2018-09-01T12:03:43.734Z,59.70
2018-09-01T12:05:47.473Z,60.50
2018-09-01T12:07:51.047Z,60.70
2018-09-01T12:09:54.532Z,59.80
2018-09-01T12:11:58.030Z,59.60
2018-09-01T12:14:01.547Z,58.80
2018-09-01T12:16:05.790Z,59.00
2018-09-01T12:18:09.488Z,59.10
2018-09-01T12:20:12.992Z,59.80
2018-09-01T12:22:16.709Z,60.80
2018-09-01T12:24:20.195Z,60.70
2018-09-01T12:26:23.844Z,60.50
2018-09-01T12:28:27.475Z,60.20
2018-09-01T12:30:30.976Z,60.20
2018-09-01T12:32:34.528Z,58.80
2018-09-01T12:34:37.999Z,59.30
2018-09-01T12:36:41.635Z,59.60
2018-09-01T12:38:45.196Z,60.60
2018-09-01T12:40:48.682Z,60.50
2018-09-01T12:42:52.191Z,59.80
2018-09-01T12:44:55.700Z,58.40
2018-09-01T12:46:59.212Z,58.00
2018-09-01T12:49:02.915Z,59.00
2018-09-01T12:51:06.653Z,58.60
2018-09-01T12:53:10.255Z,59.00
2018-09-01T12:55:13.763Z,60.40
2018-09-01T12:57:17.428Z,60.00
2018-09-01T12:59:21.055Z,59.00
2018-09-01T13:01:24.739Z,58.90
2018-09-01T13:03:28.268Z,58.60
2018-09-01T13:05:31.830Z,57.40
2018-09-01T13:07:35.371Z,56.80
2018-09-01T13:09:38.896Z,58.10
2018-09-01T13:11:42.479Z,59.20
2018-09-01T13:13:46.006Z,58.70
2018-09-01T13:15:49.549Z,58.40
2018-09-01T13:17:53.210Z,57.10
2018-09-01T13:19:56.692Z,58.70
2018-09-01T13:22:00.214Z,57.80
2018-09-01T13:24:03.801Z,58.00
2018-09-01T13:26:07.530Z,58.10
2018-09-01T13:28:11.098Z,57.70
2018-09-01T13:30:14.732Z,57.60
2018-09-01T13:32:18.279Z,57.30
2018-09-01T13:34:21.966Z,56.10
2018-09-01T13:36:25.469Z,56.90
2018-09-01T13:38:29.110Z,56.00
2018-09-01T13:40:32.835Z,56.80
2018-09-01T13:42:36.336Z,56.90
2018-09-01T13:44:39.910Z,57.00
2018-09-01T13:46:43.410Z,57.30
2018-09-01T13:48:47.135Z,58.00
2018-09-01T13:50:50.665Z,58.90
2018-09-01T13:52:54.303Z,58.80
2018-09-01T13:54:57.832Z,58.80
2018-09-01T13:57:01.379Z,58.40
2018-09-01T13:59:05.392Z,59.20
2018-09-01T14:01:08.998Z,59.20
2018-09-01T14:03:12.524Z,59.10
2018-09-01T14:05:16.085Z,59.10
2018-09-01T14:07:19.576Z,58.40
2018-09-01T14:09:23.157Z,59.40
2018-09-01T14:11:26.694Z,59.90
2018-09-01T14:13:30.508Z,59.70
2018-09-01T14:15:34.007Z,60.10
2018-09-01T14:17:37.655Z,59.60
2018-09-01T14:19:41.238Z,60.30
2018-09-01T14:21:44.769Z,60.20
2018-09-01T14:23:48.682Z,60.70
2018-09-01T14:25:52.234Z,59.20
2018-09-01T14:27:55.814Z,59.60
2018-09-01T14:29:59.320Z,60.30
2018-09-01T14:32:03.665Z,60.00
2018-09-01T14:34:07.257Z,59.20
2018-09-01T14:36:10.771Z,58.80
2018-09-01T14:38:14.465Z,58.30
2018-09-01T14:40:18.058Z,59.00
2018-09-01T14:42:21.572Z,57.90
2018-09-01T14:44:25.096Z,57.60
2018-09-01T14:46:28.718Z,58.60
2018-09-01T14:48:32.336Z,58.60
2018-09-01T14:50:35.885Z,59.40
2018-09-01T14:52:39.396Z,59.10
2018-09-01T14:54:43.088Z,58.20
2018-09-01T14:56:46.716Z,58.50
2018-09-01T14:58:50.307Z,58.30
2018-09-01T15:00:53.843Z,59.00
2018-09-01T15:02:57.376Z,58.90
2018-09-01T15:05:00.899Z,58.60
2018-09-01T15:07:04.523Z,57.80
2018-09-01T15:09:08.374Z,59.10
2018-09-01T15:11:11.899Z,59.00
2018-09-01T15:13:15.414Z,58.90
2018-09-01T15:15:19.082Z,59.50
2018-09-01T15:17:22.635Z,58.70
2018-09-01T15:19:26.228Z,58.60
2018-09-01T15:21:29.708Z,57.80
2018-09-01T15:23:33.374Z,57.60
2018-09-01T15:25:36.925Z,57.70
2018-09-01T15:27:40.414Z,58.60
2018-09-01T15:29:44.111Z,59.70
2018-09-01T15:31:47.614Z,59.60
2018-09-01T15:33:51.152Z,59.80
2018-09-01T15:35:54.804Z,60.50
2018-09-01T15:37:58.319Z,60.10
2018-09-01T15:40:01.877Z,59.40
2018-09-01T15:42:05.674Z,58.50
2018-09-01T15:44:09.263Z,58.20
2018-09-01T15:46:12.827Z,57.60
2018-09-01T15:48:16.495Z,57.40
2018-09-01T15:50:20.016Z,56.90
2018-09-01T15:52:23.657Z,57.00
2018-09-01T15:54:27.599Z,57.60
2018-09-01T15:56:31.220Z,58.40
2018-09-01T15:58:34.781Z,57.20
2018-09-01T16:00:38.405Z,57.80
2018-09-01T16:02:42.007Z,57.90
2018-09-01T16:04:45.604Z,57.40
2018-09-01T16:06:49.097Z,57.20
2018-09-01T16:08:52.572Z,57.00
2018-09-01T16:10:56.166Z,57.00
2018-09-01T16:12:59.676Z,57.60
2018-09-01T16:15:03.333Z,57.00
2018-09-01T16:17:07.127Z,57.60
2018-09-01T16:19:10.700Z,56.80
2018-09-01T16:21:14.255Z,56.70
2018-09-01T16:23:17.756Z,56.10
2018-09-01T16:25:21.345Z,56.00
2018-09-01T16:27:24.883Z,56.60
2018-09-01T16:29:28.591Z,57.60
2018-09-01T16:31:32.101Z,56.10
2018-09-01T16:33:35.696Z,56.40
2018-09-01T16:35:39.393Z,56.00
2018-09-01T16:37:43.112Z,56.00
2018-09-01T16:39:46.854Z,56.10
2018-09-01T16:41:50.415Z,56.20
2018-09-01T16:43:53.969Z,55.90
2018-09-01T16:45:57.553Z,55.70
2018-09-01T16:48:01.308Z,55.80
2018-09-01T16:50:04.943Z,55.70
2018-09-01T16:52:08.558Z,56.30
2018-09-01T16:54:12.051Z,56.50
2018-09-01T16:56:15.634Z,56.60
2018-09-01T16:58:19.350Z,56.60
2018-09-01T17:00:22.999Z,57.10
2018-09-01T17:02:27.084Z,56.80
2018-09-01T17:04:30.855Z,57.10
2018-09-01T17:06:34.668Z,56.40
2018-09-01T17:08:38.208Z,56.00
2018-09-01T17:10:41.787Z,56.20
2018-09-01T17:12:45.492Z,56.80
2018-09-01T17:14:49.157Z,57.30
2018-09-01T17:16:52.953Z,57.10
2018-09-01T17:18:56.688Z,57.70
2018-09-01T17:21:00.285Z,57.30
2018-09-01T17:23:04.022Z,57.70
2018-09-01T17:25:07.756Z,58.10
2018-09-01T17:27:11.391Z,57.60
2018-09-01T17:29:15.074Z,57.60
2018-09-01T17:31:18.707Z,57.60
2018-09-01T17:33:22.435Z,57.70
2018-09-01T17:35:26.469Z,57.00
2018-09-01T17:37:30.157Z,57.10
2018-09-01T17:39:33.895Z,57.40
2018-09-01T17:41:38.781Z,57.70
2018-09-01T17:43:42.510Z,59.00
2018-09-01T17:45:46.060Z,58.90
2018-09-01T17:47:49.667Z,59.00
2018-09-01T17:49:53.242Z,60.20
2018-09-01T17:51:56.792Z,60.50
2018-09-01T17:54:00.295Z,61.20
2018-09-01T17:56:03.914Z,61.70
2018-09-01T17:58:07.568Z,62.20
2018-09-01T18:00:11.233Z,62.50
2018-09-01T18:02:15.170Z,63.00
2018-09-01T18:04:18.806Z,63.80
2018-09-01T18:06:22.509Z,63.40
2018-09-01T18:08:26.171Z,65.40
2018-09-01T18:10:30.009Z,66.50
2018-09-01T18:12:33.580Z,65.70
2018-09-01T18:14:37.098Z,65.80
2018-09-01T18:16:41.000Z,66.60
2018-09-01T18:18:44.634Z,66.70
2018-09-01T18:20:48.248Z,67.50
2018-09-01T18:22:51.976Z,68.80
2018-09-01T18:24:55.462Z,69.20
2018-09-01T18:26:59.056Z,68.70
2018-09-01T18:29:02.590Z,68.10
2018-09-01T18:31:06.428Z,68.40
2018-09-01T18:33:09.970Z,68.30
2018-09-01T18:35:13.611Z,67.40
2018-09-01T18:37:17.162Z,67.00
2018-09-01T18:39:21.062Z,66.30
2018-09-01T18:41:24.634Z,65.90
2018-09-01T18:43:28.314Z,66.10
2018-09-01T18:45:31.868Z,66.50
2018-09-01T18:47:35.560Z,66.30
2018-09-01T18:49:39.149Z,66.30
2018-09-01T18:51:42.822Z,65.50
2018-09-01T18:53:46.381Z,65.70
2018-09-01T18:55:49.920Z,65.70
2018-09-01T18:57:53.549Z,65.80
2018-09-01T18:59:57.291Z,65.70
2018-09-01T19:02:01.268Z,65.60
2018-09-01T19:04:05.005Z,65.60
2018-09-01T19:06:08.553Z,65.60
2018-09-01T19:08:12.213Z,65.70
2018-09-01T19:10:15.724Z,65.70
2018-09-01T19:12:19.331Z,65.80
2018-09-01T19:14:23.030Z,66.60
2018-09-01T19:16:26.599Z,66.60
2018-09-01T19:18:30.145Z,66.20
2018-09-01T19:20:33.716Z,66.00
2018-09-01T19:22:37.374Z,65.90
2018-09-01T19:24:41.026Z,66.00
2018-09-01T19:26:44.669Z,66.30
2018-09-01T19:28:48.447Z,66.70
2018-09-01T19:30:52.080Z,66.90
2018-09-01T19:32:55.674Z,67.00
2018-09-01T19:34:59.348Z,67.10
2018-09-01T19:37:02.913Z,66.60
2018-09-01T19:39:09.172Z,66.40
2018-09-01T19:41:12.719Z,66.70
2018-09-01T19:43:16.309Z,66.40
2018-09-01T19:45:20.051Z,68.20
2018-09-01T19:47:23.749Z,69.20
2018-09-01T19:49:27.331Z,68.30
2018-09-01T19:51:30.984Z,69.10
2018-09-01T19:53:34.560Z,68.20
2018-09-01T19:55:38.389Z,68.30
2018-09-01T19:57:41.986Z,68.80
2018-09-01T19:59:45.715Z,69.90
2018-09-01T20:01:49.532Z,70.10
2018-09-01T20:03:53.433Z,70.20
2018-09-01T20:05:57.158Z,71.90
2018-09-01T20:08:00.831Z,71.40
2018-09-01T20:10:04.491Z,71.50
2018-09-01T20:12:08.073Z,72.40
2018-09-01T20:14:11.983Z,72.00
2018-09-01T20:16:15.534Z,73.70
2018-09-01T20:18:19.161Z,74.50
2018-09-01T20:20:22.742Z,75.30
2018-09-01T20:22:26.372Z,74.70
2018-09-01T20:24:30.029Z,74.40
2018-09-01T20:26:33.654Z,74.10
2018-09-01T20:28:37.332Z,74.70
2018-09-01T20:30:40.987Z,74.00
2018-09-01T20:32:44.588Z,75.10
2018-09-01T20:34:48.748Z,75.10
2018-09-01T20:36:52.390Z,75.70
2018-09-01T20:38:55.985Z,76.70
2018-09-01T20:40:59.556Z,76.20
2018-09-01T20:43:03.556Z,76.40
2018-09-01T20:45:07.271Z,77.00
2018-09-01T20:47:10.866Z,77.60
2018-09-01T20:49:14.375Z,77.90
2018-09-01T20:51:17.908Z,78.80
2018-09-01T20:53:21.656Z,78.00
2018-09-01T20:55:25.316Z,77.60
2018-09-01T20:57:28.916Z,78.50
2018-09-01T20:59:32.762Z,77.70
2018-09-01T21:01:36.407Z,77.60
2018-09-01T21:03:40.022Z,77.10
2018-09-01T21:05:43.531Z,77.20
2018-09-01T21:07:47.512Z,77.90
2018-09-01T21:09:51.067Z,77.50
2018-09-01T21:11:54.749Z,77.30
2018-09-01T21:13:58.405Z,77.00
2018-09-01T21:16:02.056Z,77.20
2018-09-01T21:18:05.935Z,77.00
2018-09-01T21:20:09.562Z,76.70
2018-09-01T21:22:13.116Z,76.80
2018-09-01T21:24:16.735Z,76.40
2018-09-01T21:26:20.219Z,75.60
2018-09-01T21:28:23.748Z,75.50
2018-09-01T21:30:27.276Z,75.20
2018-09-01T21:32:30.899Z,74.30
2018-09-01T21:34:34.483Z,74.20
2018-09-01T21:36:38.136Z,73.70
2018-09-01T21:38:41.775Z,73.60
2018-09-01T21:40:45.332Z,74.10
2018-09-01T21:42:49.088Z,74.00
2018-09-01T21:44:52.756Z,74.50
2018-09-01T21:46:56.311Z,74.00
2018-09-01T21:48:59.925Z,73.60
2018-09-01T21:51:03.926Z,73.50
2018-09-01T21:53:07.622Z,73.90
2018-09-01T21:55:11.169Z,73.90
2018-09-01T21:57:14.978Z,74.30
2018-09-01T21:59:18.669Z,75.30
2018-09-01T22:01:27.675Z,75.90
2018-09-01T22:03:31.210Z,75.50
2018-09-01T22:05:34.931Z,76.60
2018-09-01T22:07:38.584Z,77.70
2018-09-01T22:09:42.215Z,78.00
2018-09-01T22:11:45.921Z,78.00
2018-09-01T22:13:49.594Z,79.20
2018-09-01T22:15:53.181Z,78.50
2018-09-01T22:17:56.784Z,77.80
2018-09-01T22:20:00.537Z,78.00
2018-09-01T22:22:04.246Z,78.40
2018-09-01T22:24:07.836Z,79.10
2018-09-01T22:26:11.464Z,78.80
2018-09-01T22:28:15.996Z,78.80
2018-09-01T22:30:20.023Z,79.10
2018-09-01T22:32:23.589Z,79.10
2018-09-01T22:34:27.671Z,79.50
2018-09-01T22:36:31.256Z,79.70
2018-09-01T22:38:34.925Z,79.90
2018-09-01T22:40:38.613Z,80.20
2018-09-01T22:42:42.143Z,79.90
2018-09-01T22:44:45.766Z,80.00
2018-09-01T22:46:49.535Z,80.10
2018-09-01T22:48:53.687Z,79.90
2018-09-01T22:50:57.229Z,80.00
2018-09-01T22:53:00.807Z,79.80
2018-09-01T22:55:04.476Z,80.00
2018-09-01T22:57:08.029Z,79.60
2018-09-01T22:59:11.607Z,80.80
2018-09-01T23:01:15.375Z,80.80
2018-09-01T23:03:19.046Z,80.70
2018-09-01T23:05:22.561Z,80.60
2018-09-01T23:07:26.113Z,80.80
2018-09-01T23:09:29.757Z,81.20
2018-09-01T23:11:33.358Z,80.90
2018-09-01T23:13:37.124Z,80.70
2018-09-01T23:15:40.722Z,80.40
2018-09-01T23:17:44.240Z,80.70
2018-09-01T23:19:47.972Z,81.00
2018-09-01T23:21:51.803Z,80.80
2018-09-01T23:23:55.351Z,80.60
2018-09-01T23:25:59.261Z,80.80
2018-09-01T23:28:03.536Z,80.50
2018-09-01T23:30:07.296Z,80.20
2018-09-01T23:32:10.858Z,80.10
2018-09-01T23:34:14.631Z,79.10
2018-09-01T23:36:18.576Z,80.70
2018-09-01T23:38:22.166Z,80.60
2018-09-01T23:40:25.738Z,80.50
2018-09-01T23:42:29.291Z,80.00
2018-09-01T23:44:32.959Z,80.50
2018-09-01T23:46:36.600Z,80.70
2018-09-01T23:48:40.187Z,80.50
2018-09-01T23:50:43.787Z,81.30
2018-09-01T23:52:47.504Z,81.20
2018-09-01T23:54:51.075Z,81.20
2018-09-01T23:56:54.613Z,81.60
2018-09-01T23:58:58.400Z,82.50
